sensor_id;sensor_type;location;lat;lon;timestamp;P1;durP1;ratioP1;P2;durP2;ratioP2
19231;SDS011;9750;48.730;10.294;2023-04-06T00:01:01;9.43;;;6.90;;
19231;SDS011;9750;48.730;10.294;2023-04-06T00:03:29;8.97;;;7.60;;
19231;SDS011;9750;48.730;10.294;2023-04-06T00:05:56;7.17;;;6.53;;
19231;SDS011;9750;48.730;10.294;2023-04-06T00:08:24;8.80;;;7.90;;
19231;SDS011;9750;48.730;10.294;2023-04-06T00:10:51;8.80;;;7.67;;
19231;SDS011;9750;48.730;10.294;2023-04-06T00:13:19;8.93;;;8.00;;
19231;SDS011;9750;48.730;10.294;2023-04-06T00:15:46;10.50;;;7.67;;
19231;SDS011;9750;48.730;10.294;2023-04-06T00:18:15;11.70;;;9.13;;
19231;SDS011;9750;48.730;10.294;2023-04-06T00:20:42;9.27;;;8.37;;
19231;SDS011;9750;48.730;10.294;2023-04-06T00:23:10;9.47;;;8.47;;
19231;SDS011;9750;48.730;10.294;2023-04-06T00:25:37;11.30;;;7.60;;
19231;SDS011;9750;48.730;10.294;2023-04-06T00:28:04;9.60;;;8.20;;
19231;SDS011;9750;48.730;10.294;2023-04-06T00:30:32;11.63;;;9.00;;
19231;SDS011;9750;48.730;10.294;2023-04-06T00:32:59;10.90;;;8.73;;
19231;SDS011;9750;48.730;10.294;2023-04-06T00:35:28;10.07;;;8.93;;
19231;SDS011;9750;48.730;10.294;2023-04-06T00:37:55;9.27;;;8.00;;
19231;SDS011;9750;48.730;10.294;2023-04-06T00:40:23;13.37;;;10.23;;
19231;SDS011;9750;48.730;10.294;2023-04-06T00:42:50;8.50;;;7.60;;
19231;SDS011;9750;48.730;10.294;2023-04-06T00:45:17;8.87;;;7.97;;
19231;SDS011;9750;48.730;10.294;2023-04-06T00:47:45;11.13;;;9.97;;
19231;SDS011;9750;48.730;10.294;2023-04-06T00:50:12;15.53;;;11.10;;
19231;SDS011;9750;48.730;10.294;2023-04-06T00:52:41;9.20;;;8.27;;
19231;SDS011;9750;48.730;10.294;2023-04-06T00:55:08;8.80;;;7.90;;
19231;SDS011;9750;48.730;10.294;2023-04-06T00:57:36;10.10;;;8.83;;
19231;SDS011;9750;48.730;10.294;2023-04-06T01:00:04;10.23;;;9.13;;
19231;SDS011;9750;48.730;10.294;2023-04-06T01:02:32;11.87;;;9.60;;
19231;SDS011;9750;48.730;10.294;2023-04-06T01:04:59;14.13;;;10.47;;
19231;SDS011;9750;48.730;10.294;2023-04-06T01:07:34;14.03;;;10.63;;
19231;SDS011;9750;48.730;10.294;2023-04-06T01:10:03;10.73;;;9.47;;
19231;SDS011;9750;48.730;10.294;2023-04-06T01:12:31;9.77;;;8.80;;
19231;SDS011;9750;48.730;10.294;2023-04-06T01:14:58;10.67;;;8.10;;
19231;SDS011;9750;48.730;10.294;2023-04-06T01:17:26;11.10;;;9.13;;
19231;SDS011;9750;48.730;10.294;2023-04-06T01:19:54;11.20;;;9.03;;
19231;SDS011;9750;48.730;10.294;2023-04-06T01:22:23;9.67;;;8.23;;
19231;SDS011;9750;48.730;10.294;2023-04-06T01:24:54;9.03;;;7.47;;
19231;SDS011;9750;48.730;10.294;2023-04-06T01:27:21;9.30;;;7.67;;
19231;SDS011;9750;48.730;10.294;2023-04-06T01:29:50;8.63;;;7.80;;
19231;SDS011;9750;48.730;10.294;2023-04-06T01:32:18;8.73;;;7.83;;
19231;SDS011;9750;48.730;10.294;2023-04-06T01:34:45;9.23;;;8.10;;
19231;SDS011;9750;48.730;10.294;2023-04-06T01:40:01;9.90;;;8.87;;
19231;SDS011;9750;48.730;10.294;2023-04-06T01:42:28;8.90;;;7.97;;
19231;SDS011;9750;48.730;10.294;2023-04-06T01:44:56;8.77;;;7.87;;
19231;SDS011;9750;48.730;10.294;2023-04-06T01:47:23;8.67;;;7.43;;
19231;SDS011;9750;48.730;10.294;2023-04-06T01:49:50;8.67;;;7.60;;
19231;SDS011;9750;48.730;10.294;2023-04-06T01:52:17;7.67;;;6.87;;
19231;SDS011;9750;48.730;10.294;2023-04-06T01:54:47;8.30;;;7.30;;
19231;SDS011;9750;48.730;10.294;2023-04-06T01:57:14;9.07;;;7.93;;
19231;SDS011;9750;48.730;10.294;2023-04-06T01:59:42;7.37;;;6.67;;
19231;SDS011;9750;48.730;10.294;2023-04-06T02:02:09;8.17;;;7.33;;
19231;SDS011;9750;48.730;10.294;2023-04-06T02:04:38;9.47;;;8.57;;
19231;SDS011;9750;48.730;10.294;2023-04-06T02:07:05;11.13;;;8.87;;
19231;SDS011;9750;48.730;10.294;2023-04-06T02:09:32;9.77;;;8.77;;
19231;SDS011;9750;48.730;10.294;2023-04-06T02:12:01;10.37;;;9.33;;
19231;SDS011;9750;48.730;10.294;2023-04-06T02:14:29;12.63;;;9.43;;
19231;SDS011;9750;48.730;10.294;2023-04-06T02:16:56;9.83;;;8.83;;
19231;SDS011;9750;48.730;10.294;2023-04-06T02:19:23;12.40;;;9.23;;
19231;SDS011;9750;48.730;10.294;2023-04-06T02:21:51;10.37;;;9.20;;
19231;SDS011;9750;48.730;10.294;2023-04-06T02:24:18;10.37;;;8.87;;
19231;SDS011;9750;48.730;10.294;2023-04-06T02:26:46;9.93;;;8.70;;
19231;SDS011;9750;48.730;10.294;2023-04-06T02:29:14;10.03;;;9.00;;
19231;SDS011;9750;48.730;10.294;2023-04-06T02:31:42;8.73;;;7.83;;
19231;SDS011;9750;48.730;10.294;2023-04-06T02:34:09;10.33;;;8.30;;
19231;SDS011;9750;48.730;10.294;2023-04-06T02:36:42;9.37;;;8.27;;
19231;SDS011;9750;48.730;10.294;2023-04-06T02:39:10;9.10;;;7.97;;
19231;SDS011;9750;48.730;10.294;2023-04-06T02:41:38;8.80;;;8.00;;
19231;SDS011;9750;48.730;10.294;2023-04-06T02:44:06;9.73;;;8.37;;
19231;SDS011;9750;48.730;10.294;2023-04-06T02:46:36;9.17;;;8.13;;
19231;SDS011;9750;48.730;10.294;2023-04-06T02:49:03;10.47;;;8.87;;
19231;SDS011;9750;48.730;10.294;2023-04-06T02:51:31;11.13;;;8.83;;
19231;SDS011;9750;48.730;10.294;2023-04-06T02:53:58;9.40;;;8.37;;
19231;SDS011;9750;48.730;10.294;2023-04-06T02:56:25;8.83;;;7.47;;
19231;SDS011;9750;48.730;10.294;2023-04-06T02:58:53;9.47;;;8.57;;
19231;SDS011;9750;48.730;10.294;2023-04-06T03:01:20;9.80;;;8.80;;
19231;SDS011;9750;48.730;10.294;2023-04-06T03:03:49;9.90;;;8.90;;
19231;SDS011;9750;48.730;10.294;2023-04-06T03:06:16;13.33;;;9.43;;
19231;SDS011;9750;48.730;10.294;2023-04-06T03:08:44;9.93;;;8.83;;
19231;SDS011;9750;48.730;10.294;2023-04-06T03:11:12;8.47;;;7.67;;
19231;SDS011;9750;48.730;10.294;2023-04-06T03:13:39;9.73;;;8.73;;
19231;SDS011;9750;48.730;10.294;2023-04-06T03:16:07;10.07;;;8.43;;
19231;SDS011;9750;48.730;10.294;2023-04-06T03:18:34;10.00;;;8.70;;
19231;SDS011;9750;48.730;10.294;2023-04-06T03:21:03;11.07;;;9.13;;
19231;SDS011;9750;48.730;10.294;2023-04-06T03:23:31;10.10;;;9.10;;
19231;SDS011;9750;48.730;10.294;2023-04-06T03:25:58;10.47;;;9.00;;
19231;SDS011;9750;48.730;10.294;2023-04-06T03:28:25;11.40;;;9.37;;
19231;SDS011;9750;48.730;10.294;2023-04-06T03:30:53;12.30;;;10.57;;
19231;SDS011;9750;48.730;10.294;2023-04-06T03:33:20;10.90;;;9.90;;
19231;SDS011;9750;48.730;10.294;2023-04-06T03:35:47;11.80;;;9.77;;
19231;SDS011;9750;48.730;10.294;2023-04-06T03:38:17;12.37;;;10.07;;
19231;SDS011;9750;48.730;10.294;2023-04-06T03:40:45;11.07;;;9.53;;
19231;SDS011;9750;48.730;10.294;2023-04-06T03:43:21;10.23;;;9.23;;
19231;SDS011;9750;48.730;10.294;2023-04-06T03:45:49;11.17;;;9.40;;
19231;SDS011;9750;48.730;10.294;2023-04-06T03:48:16;9.90;;;8.90;;
19231;SDS011;9750;48.730;10.294;2023-04-06T03:50:43;11.17;;;9.20;;
19231;SDS011;9750;48.730;10.294;2023-04-06T03:53:11;10.30;;;8.57;;
19231;SDS011;9750;48.730;10.294;2023-04-06T03:55:40;9.53;;;8.53;;
19231;SDS011;9750;48.730;10.294;2023-04-06T03:58:07;10.40;;;8.83;;
19231;SDS011;9750;48.730;10.294;2023-04-06T04:00:34;9.93;;;8.40;;
19231;SDS011;9750;48.730;10.294;2023-04-06T04:03:02;10.30;;;9.30;;
19231;SDS011;9750;48.730;10.294;2023-04-06T04:05:29;10.27;;;9.03;;
19231;SDS011;9750;48.730;10.294;2023-04-06T04:07:56;10.27;;;8.47;;
19231;SDS011;9750;48.730;10.294;2023-04-06T04:10:24;10.13;;;8.87;;
19231;SDS011;9750;48.730;10.294;2023-04-06T04:12:53;10.10;;;8.83;;
19231;SDS011;9750;48.730;10.294;2023-04-06T04:15:20;10.47;;;8.67;;
19231;SDS011;9750;48.730;10.294;2023-04-06T04:17:47;10.63;;;8.73;;
19231;SDS011;9750;48.730;10.294;2023-04-06T04:20:15;11.03;;;9.87;;
19231;SDS011;9750;48.730;10.294;2023-04-06T04:22:43;12.37;;;9.73;;
19231;SDS011;9750;48.730;10.294;2023-04-06T04:25:10;11.97;;;10.53;;
19231;SDS011;9750;48.730;10.294;2023-04-06T04:27:37;12.50;;;10.63;;
19231;SDS011;9750;48.730;10.294;2023-04-06T04:30:07;12.80;;;10.57;;
19231;SDS011;9750;48.730;10.294;2023-04-06T04:32:35;10.47;;;9.37;;
19231;SDS011;9750;48.730;10.294;2023-04-06T04:35:02;10.27;;;9.23;;
19231;SDS011;9750;48.730;10.294;2023-04-06T04:37:30;11.33;;;9.07;;
19231;SDS011;9750;48.730;10.294;2023-04-06T04:39:59;13.17;;;10.03;;
19231;SDS011;9750;48.730;10.294;2023-04-06T04:42:30;11.43;;;10.33;;
19231;SDS011;9750;48.730;10.294;2023-04-06T04:44:57;12.60;;;9.90;;
19231;SDS011;9750;48.730;10.294;2023-04-06T04:47:26;10.77;;;9.67;;
19231;SDS011;9750;48.730;10.294;2023-04-06T04:49:54;10.37;;;9.30;;
19231;SDS011;9750;48.730;10.294;2023-04-06T04:52:21;11.37;;;9.50;;
19231;SDS011;9750;48.730;10.294;2023-04-06T04:54:48;12.93;;;9.90;;
19231;SDS011;9750;48.730;10.294;2023-04-06T04:57:16;11.30;;;9.70;;
19231;SDS011;9750;48.730;10.294;2023-04-06T04:59:43;15.70;;;10.23;;
19231;SDS011;9750;48.730;10.294;2023-04-06T05:02:10;13.77;;;10.90;;
19231;SDS011;9750;48.730;10.294;2023-04-06T05:04:39;10.27;;;9.27;;
19231;SDS011;9750;48.730;10.294;2023-04-06T05:07:07;12.10;;;9.70;;
19231;SDS011;9750;48.730;10.294;2023-04-06T05:09:35;11.27;;;9.90;;
19231;SDS011;9750;48.730;10.294;2023-04-06T05:12:03;11.67;;;10.10;;
19231;SDS011;9750;48.730;10.294;2023-04-06T05:14:30;12.00;;;9.77;;
19231;SDS011;9750;48.730;10.294;2023-04-06T05:16:58;12.10;;;10.20;;
19231;SDS011;9750;48.730;10.294;2023-04-06T05:19:25;14.87;;;11.20;;
19231;SDS011;9750;48.730;10.294;2023-04-06T05:21:54;11.10;;;10.00;;
19231;SDS011;9750;48.730;10.294;2023-04-06T05:24:22;12.47;;;10.27;;
19231;SDS011;9750;48.730;10.294;2023-04-06T05:26:49;11.33;;;9.10;;
19231;SDS011;9750;48.730;10.294;2023-04-06T05:29:16;12.83;;;10.30;;
19231;SDS011;9750;48.730;10.294;2023-04-06T05:31:45;13.47;;;11.30;;
19231;SDS011;9750;48.730;10.294;2023-04-06T05:34:12;15.83;;;12.43;;
19231;SDS011;9750;48.730;10.294;2023-04-06T05:36:40;17.10;;;15.37;;
19231;SDS011;9750;48.730;10.294;2023-04-06T05:39:09;14.90;;;13.30;;
19231;SDS011;9750;48.730;10.294;2023-04-06T05:41:37;19.60;;;16.70;;
19231;SDS011;9750;48.730;10.294;2023-04-06T05:44:05;25.03;;;21.07;;
19231;SDS011;9750;48.730;10.294;2023-04-06T05:46:32;20.27;;;17.10;;
19231;SDS011;9750;48.730;10.294;2023-04-06T05:48:59;21.30;;;17.60;;
19231;SDS011;9750;48.730;10.294;2023-04-06T05:51:27;19.00;;;16.67;;
19231;SDS011;9750;48.730;10.294;2023-04-06T05:53:54;22.60;;;17.67;;
19231;SDS011;9750;48.730;10.294;2023-04-06T05:56:24;21.67;;;17.23;;
19231;SDS011;9750;48.730;10.294;2023-04-06T05:58:52;23.53;;;17.57;;
19231;SDS011;9750;48.730;10.294;2023-04-06T06:01:19;27.50;;;19.83;;
19231;SDS011;9750;48.730;10.294;2023-04-06T06:03:46;19.07;;;15.23;;
19231;SDS011;9750;48.730;10.294;2023-04-06T06:06:14;16.47;;;12.10;;
19231;SDS011;9750;48.730;10.294;2023-04-06T06:08:41;20.03;;;16.13;;
19231;SDS011;9750;48.730;10.294;2023-04-06T06:11:08;17.93;;;15.80;;
19231;SDS011;9750;48.730;10.294;2023-04-06T06:13:37;19.73;;;15.83;;
19231;SDS011;9750;48.730;10.294;2023-04-06T06:16:05;16.27;;;14.27;;
19231;SDS011;9750;48.730;10.294;2023-04-06T06:18:33;15.67;;;13.63;;
19231;SDS011;9750;48.730;10.294;2023-04-06T06:21:01;28.07;;;20.03;;
19231;SDS011;9750;48.730;10.294;2023-04-06T06:23:29;25.57;;;20.87;;
19231;SDS011;9750;48.730;10.294;2023-04-06T06:25:56;17.90;;;14.60;;
19231;SDS011;9750;48.730;10.294;2023-04-06T06:31:46;16.03;;;13.47;;
19231;SDS011;9750;48.730;10.294;2023-04-06T06:34:14;16.20;;;14.27;;
19231;SDS011;9750;48.730;10.294;2023-04-06T06:36:41;16.83;;;14.07;;
19231;SDS011;9750;48.730;10.294;2023-04-06T06:39:08;15.47;;;12.70;;
19231;SDS011;9750;48.730;10.294;2023-04-06T06:41:36;15.07;;;12.43;;
19231;SDS011;9750;48.730;10.294;2023-04-06T06:44:03;18.17;;;14.27;;
19231;SDS011;9750;48.730;10.294;2023-04-06T06:46:31;16.30;;;12.57;;
19231;SDS011;9750;48.730;10.294;2023-04-06T06:49:00;15.77;;;13.90;;
19231;SDS011;9750;48.730;10.294;2023-04-06T06:51:28;18.17;;;13.97;;
19231;SDS011;9750;48.730;10.294;2023-04-06T06:53:55;15.03;;;13.20;;
19231;SDS011;9750;48.730;10.294;2023-04-06T06:56:22;19.50;;;15.17;;
19231;SDS011;9750;48.730;10.294;2023-04-06T06:58:51;15.23;;;12.67;;
19231;SDS011;9750;48.730;10.294;2023-04-06T07:01:19;18.10;;;13.43;;
19231;SDS011;9750;48.730;10.294;2023-04-06T07:03:46;14.43;;;12.43;;
19231;SDS011;9750;48.730;10.294;2023-04-06T07:06:15;18.07;;;14.50;;
19231;SDS011;9750;48.730;10.294;2023-04-06T07:08:42;17.13;;;13.53;;
19231;SDS011;9750;48.730;10.294;2023-04-06T07:11:10;18.50;;;15.43;;
19231;SDS011;9750;48.730;10.294;2023-04-06T07:13:37;17.27;;;14.00;;
19231;SDS011;9750;48.730;10.294;2023-04-06T07:16:05;36.50;;;26.27;;
19231;SDS011;9750;48.730;10.294;2023-04-06T07:18:32;25.50;;;20.13;;
19231;SDS011;9750;48.730;10.294;2023-04-06T07:21:00;24.27;;;17.73;;
19231;SDS011;9750;48.730;10.294;2023-04-06T07:23:28;20.17;;;16.07;;
19231;SDS011;9750;48.730;10.294;2023-04-06T07:25:56;28.80;;;20.43;;
19231;SDS011;9750;48.730;10.294;2023-04-06T07:28:23;24.33;;;18.07;;
19231;SDS011;9750;48.730;10.294;2023-04-06T07:30:51;28.53;;;21.07;;
19231;SDS011;9750;48.730;10.294;2023-04-06T07:33:19;16.07;;;14.43;;
19231;SDS011;9750;48.730;10.294;2023-04-06T07:35:46;17.40;;;15.60;;
19231;SDS011;9750;48.730;10.294;2023-04-06T07:38:14;15.27;;;13.67;;
19231;SDS011;9750;48.730;10.294;2023-04-06T07:40:43;17.53;;;15.47;;
19231;SDS011;9750;48.730;10.294;2023-04-06T07:43:10;14.37;;;12.87;;
19231;SDS011;9750;48.730;10.294;2023-04-06T07:45:37;20.77;;;15.40;;
19231;SDS011;9750;48.730;10.294;2023-04-06T07:48:05;13.47;;;11.93;;
19231;SDS011;9750;48.730;10.294;2023-04-06T07:50:32;17.43;;;14.37;;
19231;SDS011;9750;48.730;10.294;2023-04-06T07:53:00;15.48;;;13.98;;
19231;SDS011;9750;48.730;10.294;2023-04-06T07:55:27;15.90;;;13.50;;
19231;SDS011;9750;48.730;10.294;2023-04-06T07:57:56;13.23;;;11.70;;
19231;SDS011;9750;48.730;10.294;2023-04-06T08:00:24;15.17;;;13.43;;
19231;SDS011;9750;48.730;10.294;2023-04-06T08:02:51;11.97;;;10.80;;
19231;SDS011;9750;48.730;10.294;2023-04-06T08:05:19;21.63;;;18.57;;
19231;SDS011;9750;48.730;10.294;2023-04-06T08:11:08;14.33;;;12.73;;
19231;SDS011;9750;48.730;10.294;2023-04-06T08:13:37;13.33;;;10.87;;
19231;SDS011;9750;48.730;10.294;2023-04-06T08:16:05;15.47;;;12.90;;
19231;SDS011;9750;48.730;10.294;2023-04-06T08:18:35;13.43;;;11.40;;
19231;SDS011;9750;48.730;10.294;2023-04-06T08:21:02;15.50;;;12.57;;
19231;SDS011;9750;48.730;10.294;2023-04-06T08:23:30;13.80;;;10.80;;
19231;SDS011;9750;48.730;10.294;2023-04-06T08:26:02;66.80;;;30.17;;
19231;SDS011;9750;48.730;10.294;2023-04-06T08:28:29;29.70;;;16.63;;
19231;SDS011;9750;48.730;10.294;2023-04-06T08:30:59;46.63;;;21.30;;
19231;SDS011;9750;48.730;10.294;2023-04-06T08:33:29;28.97;;;15.03;;
19231;SDS011;9750;48.730;10.294;2023-04-06T08:35:57;16.30;;;12.50;;
19231;SDS011;9750;48.730;10.294;2023-04-06T08:38:24;12.07;;;9.97;;
19231;SDS011;9750;48.730;10.294;2023-04-06T08:40:51;15.10;;;12.20;;
19231;SDS011;9750;48.730;10.294;2023-04-06T08:43:19;13.80;;;10.77;;
19231;SDS011;9750;48.730;10.294;2023-04-06T08:45:48;19.50;;;11.60;;
19231;SDS011;9750;48.730;10.294;2023-04-06T08:48:17;16.83;;;10.87;;
19231;SDS011;9750;48.730;10.294;2023-04-06T08:50:45;14.57;;;10.83;;
19231;SDS011;9750;48.730;10.294;2023-04-06T08:53:13;17.53;;;11.40;;
19231;SDS011;9750;48.730;10.294;2023-04-06T08:55:42;14.37;;;11.57;;
19231;SDS011;9750;48.730;10.294;2023-04-06T08:58:11;10.80;;;9.13;;
19231;SDS011;9750;48.730;10.294;2023-04-06T09:00:39;13.70;;;10.80;;
19231;SDS011;9750;48.730;10.294;2023-04-06T09:03:06;10.67;;;9.37;;
19231;SDS011;9750;48.730;10.294;2023-04-06T09:05:36;13.93;;;11.40;;
19231;SDS011;9750;48.730;10.294;2023-04-06T09:08:05;10.83;;;9.73;;
19231;SDS011;9750;48.730;10.294;2023-04-06T09:10:32;16.17;;;10.53;;
19231;SDS011;9750;48.730;10.294;2023-04-06T09:13:04;11.57;;;9.60;;
19231;SDS011;9750;48.730;10.294;2023-04-06T09:15:32;11.63;;;10.23;;
19231;SDS011;9750;48.730;10.294;2023-04-06T09:21:20;14.00;;;10.10;;
19231;SDS011;9750;48.730;10.294;2023-04-06T09:23:47;10.17;;;9.10;;
19231;SDS011;9750;48.730;10.294;2023-04-06T09:26:24;12.00;;;10.07;;
19231;SDS011;9750;48.730;10.294;2023-04-06T09:28:52;11.80;;;9.27;;
19231;SDS011;9750;48.730;10.294;2023-04-06T09:31:21;11.57;;;9.90;;
19231;SDS011;9750;48.730;10.294;2023-04-06T09:33:50;10.90;;;8.93;;
19231;SDS011;9750;48.730;10.294;2023-04-06T09:36:18;14.07;;;9.17;;
19231;SDS011;9750;48.730;10.294;2023-04-06T09:38:56;12.53;;;9.83;;
19231;SDS011;9750;48.730;10.294;2023-04-06T09:41:24;10.13;;;8.93;;
19231;SDS011;9750;48.730;10.294;2023-04-06T09:44:01;12.37;;;10.17;;
19231;SDS011;9750;48.730;10.294;2023-04-06T09:46:30;12.47;;;10.20;;
19231;SDS011;9750;48.730;10.294;2023-04-06T09:49:00;13.53;;;10.10;;
19231;SDS011;9750;48.730;10.294;2023-04-06T09:51:30;11.07;;;9.57;;
19231;SDS011;9750;48.730;10.294;2023-04-06T09:54:02;12.53;;;9.47;;
19231;SDS011;9750;48.730;10.294;2023-04-06T09:56:31;10.13;;;8.53;;
19231;SDS011;9750;48.730;10.294;2023-04-06T09:59:05;10.93;;;9.83;;
19231;SDS011;9750;48.730;10.294;2023-04-06T10:01:35;12.10;;;9.00;;
19231;SDS011;9750;48.730;10.294;2023-04-06T10:04:09;11.37;;;9.30;;
19231;SDS011;9750;48.730;10.294;2023-04-06T10:06:49;11.47;;;9.20;;
19231;SDS011;9750;48.730;10.294;2023-04-06T10:09:18;10.90;;;9.53;;
19231;SDS011;9750;48.730;10.294;2023-04-06T10:11:47;10.90;;;9.57;;
19231;SDS011;9750;48.730;10.294;2023-04-06T10:14:16;12.10;;;10.07;;
19231;SDS011;9750;48.730;10.294;2023-04-06T10:16:43;11.27;;;9.70;;
19231;SDS011;9750;48.730;10.294;2023-04-06T10:19:13;12.43;;;10.23;;
19231;SDS011;9750;48.730;10.294;2023-04-06T10:21:45;11.73;;;9.87;;
19231;SDS011;9750;48.730;10.294;2023-04-06T10:24:17;12.23;;;10.17;;
19231;SDS011;9750;48.730;10.294;2023-04-06T10:26:54;15.13;;;11.73;;
19231;SDS011;9750;48.730;10.294;2023-04-06T10:29:24;12.17;;;10.33;;
19231;SDS011;9750;48.730;10.294;2023-04-06T10:49:11;12.30;;;10.67;;
19231;SDS011;9750;48.730;10.294;2023-04-06T10:51:38;11.37;;;9.90;;
19231;SDS011;9750;48.730;10.294;2023-04-06T10:54:06;10.90;;;9.80;;
19231;SDS011;9750;48.730;10.294;2023-04-06T10:56:36;12.23;;;10.17;;
19231;SDS011;9750;48.730;10.294;2023-04-06T10:59:05;12.03;;;10.73;;
19231;SDS011;9750;48.730;10.294;2023-04-06T11:01:33;16.23;;;11.07;;
19231;SDS011;9750;48.730;10.294;2023-04-06T11:04:01;16.67;;;12.37;;
19231;SDS011;9750;48.730;10.294;2023-04-06T11:06:32;14.37;;;10.83;;
19231;SDS011;9750;48.730;10.294;2023-04-06T11:09:04;13.73;;;11.33;;
19231;SDS011;9750;48.730;10.294;2023-04-06T11:11:49;12.03;;;10.13;;
19231;SDS011;9750;48.730;10.294;2023-04-06T11:14:40;12.93;;;10.70;;
19231;SDS011;9750;48.730;10.294;2023-04-06T11:17:24;13.93;;;11.20;;
19231;SDS011;9750;48.730;10.294;2023-04-06T11:19:53;11.93;;;10.73;;
19231;SDS011;9750;48.730;10.294;2023-04-06T11:29:09;13.00;;;11.60;;
19231;SDS011;9750;48.730;10.294;2023-04-06T11:31:44;13.07;;;11.77;;
19231;SDS011;9750;48.730;10.294;2023-04-06T11:34:13;11.93;;;10.73;;
19231;SDS011;9750;48.730;10.294;2023-04-06T11:36:44;11.73;;;10.10;;
19231;SDS011;9750;48.730;10.294;2023-04-06T11:39:30;12.03;;;9.87;;
19231;SDS011;9750;48.730;10.294;2023-04-06T11:45:39;13.20;;;10.57;;
19231;SDS011;9750;48.730;10.294;2023-04-06T11:48:16;13.07;;;11.03;;
19231;SDS011;9750;48.730;10.294;2023-04-06T11:50:46;11.40;;;10.20;;
19231;SDS011;9750;48.730;10.294;2023-04-06T11:53:17;11.97;;;10.57;;
19231;SDS011;9750;48.730;10.294;2023-04-06T11:55:44;11.87;;;10.67;;
19231;SDS011;9750;48.730;10.294;2023-04-06T12:01:04;12.00;;;10.70;;
19231;SDS011;9750;48.730;10.294;2023-04-06T12:03:32;11.87;;;10.20;;
19231;SDS011;9750;48.730;10.294;2023-04-06T12:05:59;12.07;;;10.23;;
19231;SDS011;9750;48.730;10.294;2023-04-06T12:08:26;12.17;;;10.87;;
19231;SDS011;9750;48.730;10.294;2023-04-06T12:10:54;11.93;;;10.73;;
19231;SDS011;9750;48.730;10.294;2023-04-06T12:13:21;16.00;;;11.90;;
19231;SDS011;9750;48.730;10.294;2023-04-06T12:15:50;12.40;;;11.13;;
19231;SDS011;9750;48.730;10.294;2023-04-06T12:18:17;12.57;;;11.27;;
19231;SDS011;9750;48.730;10.294;2023-04-06T12:20:45;12.40;;;11.10;;
19231;SDS011;9750;48.730;10.294;2023-04-06T12:23:12;12.43;;;11.00;;
19231;SDS011;9750;48.730;10.294;2023-04-06T12:25:40;13.50;;;12.10;;
19231;SDS011;9750;48.730;10.294;2023-04-06T12:28:08;13.97;;;12.00;;
19231;SDS011;9750;48.730;10.294;2023-04-06T12:30:36;12.67;;;11.37;;
19231;SDS011;9750;48.730;10.294;2023-04-06T12:33:06;12.07;;;10.87;;
19231;SDS011;9750;48.730;10.294;2023-04-06T12:35:33;12.47;;;11.27;;
19231;SDS011;9750;48.730;10.294;2023-04-06T12:38:01;12.83;;;10.90;;
19231;SDS011;9750;48.730;10.294;2023-04-06T12:40:28;13.10;;;10.50;;
19231;SDS011;9750;48.730;10.294;2023-04-06T12:42:56;11.53;;;10.33;;
19231;SDS011;9750;48.730;10.294;2023-04-06T12:45:23;11.37;;;10.00;;
19231;SDS011;9750;48.730;10.294;2023-04-06T12:47:53;11.80;;;10.57;;
19231;SDS011;9750;48.730;10.294;2023-04-06T12:50:26;11.30;;;9.93;;
19231;SDS011;9750;48.730;10.294;2023-04-06T12:52:53;12.43;;;11.13;;
19231;SDS011;9750;48.730;10.294;2023-04-06T12:55:21;12.43;;;11.00;;
19231;SDS011;9750;48.730;10.294;2023-04-06T12:57:50;11.00;;;9.90;;
19231;SDS011;9750;48.730;10.294;2023-04-06T13:00:18;12.50;;;11.20;;
19231;SDS011;9750;48.730;10.294;2023-04-06T13:02:46;32.33;;;25.47;;
19231;SDS011;9750;48.730;10.294;2023-04-06T13:05:13;13.03;;;11.70;;
19231;SDS011;9750;48.730;10.294;2023-04-06T13:07:45;22.40;;;20.10;;
19231;SDS011;9750;48.730;10.294;2023-04-06T13:10:13;14.00;;;12.57;;
19231;SDS011;9750;48.730;10.294;2023-04-06T13:12:40;16.97;;;11.60;;
19231;SDS011;9750;48.730;10.294;2023-04-06T13:15:08;13.20;;;11.47;;
19231;SDS011;9750;48.730;10.294;2023-04-06T13:17:51;12.50;;;11.10;;
19231;SDS011;9750;48.730;10.294;2023-04-06T13:20:19;13.03;;;11.73;;
19231;SDS011;9750;48.730;10.294;2023-04-06T13:23:13;14.27;;;10.90;;
19231;SDS011;9750;48.730;10.294;2023-04-06T13:26:27;12.10;;;10.90;;
19231;SDS011;9750;48.730;10.294;2023-04-06T13:29:04;12.13;;;10.33;;
19231;SDS011;9750;48.730;10.294;2023-04-06T13:31:40;12.43;;;11.13;;
19231;SDS011;9750;48.730;10.294;2023-04-06T13:34:07;11.93;;;10.73;;
19231;SDS011;9750;48.730;10.294;2023-04-06T13:36:35;11.77;;;10.67;;
19231;SDS011;9750;48.730;10.294;2023-04-06T13:39:06;12.00;;;10.90;;
19231;SDS011;9750;48.730;10.294;2023-04-06T13:41:38;11.57;;;10.40;;
19231;SDS011;9750;48.730;10.294;2023-04-06T13:44:10;11.50;;;10.30;;
19231;SDS011;9750;48.730;10.294;2023-04-06T13:46:37;12.63;;;11.33;;
19231;SDS011;9750;48.730;10.294;2023-04-06T13:49:07;12.73;;;11.40;;
19231;SDS011;9750;48.730;10.294;2023-04-06T13:55:26;12.17;;;10.87;;
19231;SDS011;9750;48.730;10.294;2023-04-06T13:58:01;11.63;;;10.40;;
19231;SDS011;9750;48.730;10.294;2023-04-06T14:00:37;12.63;;;11.13;;
19231;SDS011;9750;48.730;10.294;2023-04-06T14:03:16;12.00;;;10.80;;
19231;SDS011;9750;48.730;10.294;2023-04-06T14:05:54;14.33;;;10.40;;
19231;SDS011;9750;48.730;10.294;2023-04-06T14:08:21;10.47;;;9.40;;
19231;SDS011;9750;48.730;10.294;2023-04-06T14:10:57;11.73;;;10.23;;
19231;SDS011;9750;48.730;10.294;2023-04-06T14:13:26;11.83;;;10.63;;
19231;SDS011;9750;48.730;10.294;2023-04-06T14:15:54;11.40;;;10.23;;
19231;SDS011;9750;48.730;10.294;2023-04-06T14:21:29;12.20;;;10.90;;
19231;SDS011;9750;48.730;10.294;2023-04-06T14:24:05;11.57;;;10.47;;
19231;SDS011;9750;48.730;10.294;2023-04-06T14:26:35;11.60;;;10.40;;
19231;SDS011;9750;48.730;10.294;2023-04-06T14:29:02;12.30;;;11.07;;
19231;SDS011;9750;48.730;10.294;2023-04-06T14:31:30;14.10;;;10.20;;
19231;SDS011;9750;48.730;10.294;2023-04-06T14:34:00;12.40;;;10.93;;
19231;SDS011;9750;48.730;10.294;2023-04-06T14:36:28;13.13;;;10.33;;
19231;SDS011;9750;48.730;10.294;2023-04-06T14:39:01;12.03;;;10.83;;
19231;SDS011;9750;48.730;10.294;2023-04-06T14:41:29;10.93;;;9.83;;
19231;SDS011;9750;48.730;10.294;2023-04-06T14:43:59;11.77;;;10.30;;
19231;SDS011;9750;48.730;10.294;2023-04-06T14:46:26;11.70;;;10.53;;
19231;SDS011;9750;48.730;10.294;2023-04-06T14:48:54;14.47;;;11.73;;
19231;SDS011;9750;48.730;10.294;2023-04-06T14:51:23;11.00;;;9.90;;
19231;SDS011;9750;48.730;10.294;2023-04-06T14:53:52;10.97;;;9.77;;
19231;SDS011;9750;48.730;10.294;2023-04-06T14:56:22;11.57;;;10.37;;
19231;SDS011;9750;48.730;10.294;2023-04-06T14:58:50;10.67;;;9.63;;
19231;SDS011;9750;48.730;10.294;2023-04-06T15:01:19;10.77;;;9.67;;
19231;SDS011;9750;48.730;10.294;2023-04-06T15:03:46;11.47;;;10.30;;
19231;SDS011;9750;48.730;10.294;2023-04-06T15:06:14;11.93;;;10.73;;
19231;SDS011;9750;48.730;10.294;2023-04-06T15:08:42;12.83;;;10.63;;
19231;SDS011;9750;48.730;10.294;2023-04-06T15:11:10;10.83;;;9.73;;
19231;SDS011;9750;48.730;10.294;2023-04-06T15:13:38;11.77;;;10.67;;
19231;SDS011;9750;48.730;10.294;2023-04-06T15:16:06;12.67;;;9.97;;
19231;SDS011;9750;48.730;10.294;2023-04-06T15:18:35;15.03;;;13.50;;
19231;SDS011;9750;48.730;10.294;2023-04-06T15:21:03;12.90;;;11.60;;
19231;SDS011;9750;48.730;10.294;2023-04-06T15:23:30;11.80;;;10.43;;
19231;SDS011;9750;48.730;10.294;2023-04-06T15:25:59;11.57;;;10.47;;
19231;SDS011;9750;48.730;10.294;2023-04-06T15:28:26;12.27;;;11.10;;